sensor_id;sensor_type;location;lat;lon;timestamp;temperature;humidity
25652;DHT22;13508;50.734;4.232;2022-08-07T00:02:22;17.20;99.90
25652;DHT22;13508;50.734;4.232;2022-08-07T00:05:26;17.20;99.90
25652;DHT22;13508;50.734;4.232;2022-08-07T00:08:30;17.20;99.90
25652;DHT22;13508;50.734;4.232;2022-08-07T00:11:33;17.10;99.90
25652;DHT22;13508;50.734;4.232;2022-08-07T00:14:37;17.10;99.90
25652;DHT22;13508;50.734;4.232;2022-08-07T00:17:40;17.10;99.90
25652;DHT22;13508;50.734;4.232;2022-08-07T00:20:43;17.10;99.90
25652;DHT22;13508;50.734;4.232;2022-08-07T00:23:46;17.10;99.90
25652;DHT22;13508;50.734;4.232;2022-08-07T00:26:49;17.20;99.90
25652;DHT22;13508;50.734;4.232;2022-08-07T00:29:54;17.10;99.90
25652;DHT22;13508;50.734;4.232;2022-08-07T00:32:59;17.10;99.90
25652;DHT22;13508;50.734;4.232;2022-08-07T00:36:03;17.10;99.90
25652;DHT22;13508;50.734;4.232;2022-08-07T00:39:07;17.00;99.90
25652;DHT22;13508;50.734;4.232;2022-08-07T00:42:11;16.90;99.90
25652;DHT22;13508;50.734;4.232;2022-08-07T00:45:14;16.90;99.90
25652;DHT22;13508;50.734;4.232;2022-08-07T00:48:18;16.90;99.90
25652;DHT22;13508;50.734;4.232;2022-08-07T00:51:21;16.80;99.90
25652;DHT22;13508;50.734;4.232;2022-08-07T00:54:24;16.80;99.90
25652;DHT22;13508;50.734;4.232;2022-08-07T00:57:27;16.70;99.90
25652;DHT22;13508;50.734;4.232;2022-08-07T01:00:31;16.70;99.90
25652;DHT22;13508;50.734;4.232;2022-08-07T01:03:35;16.70;99.90
25652;DHT22;13508;50.734;4.232;2022-08-07T01:06:38;16.60;99.90
25652;DHT22;13508;50.734;4.232;2022-08-07T01:09:41;16.50;99.90
25652;DHT22;13508;50.734;4.232;2022-08-07T01:12:44;16.50;99.90
25652;DHT22;13508;50.734;4.232;2022-08-07T01:15:49;16.60;99.90
25652;DHT22;13508;50.734;4.232;2022-08-07T01:18:53;16.60;99.90
25652;DHT22;13508;50.734;4.232;2022-08-07T01:21:57;16.60;99.90
25652;DHT22;13508;50.734;4.232;2022-08-07T01:25:02;16.60;99.90
25652;DHT22;13508;50.734;4.232;2022-08-07T01:28:05;16.60;99.90
25652;DHT22;13508;50.734;4.232;2022-08-07T01:31:09;16.60;99.90
25652;DHT22;13508;50.734;4.232;2022-08-07T01:34:13;16.60;99.90
25652;DHT22;13508;50.734;4.232;2022-08-07T01:37:17;16.30;99.90
25652;DHT22;13508;50.734;4.232;2022-08-07T01:40:22;16.30;99.90
25652;DHT22;13508;50.734;4.232;2022-08-07T01:43:28;16.30;99.90
25652;DHT22;13508;50.734;4.232;2022-08-07T01:46:32;16.30;99.90
25652;DHT22;13508;50.734;4.232;2022-08-07T01:49:35;16.10;99.90
25652;DHT22;13508;50.734;4.232;2022-08-07T01:52:39;16.00;99.90
25652;DHT22;13508;50.734;4.232;2022-08-07T01:55:48;16.10;99.90
25652;DHT22;13508;50.734;4.232;2022-08-07T01:59:03;16.20;99.90
25652;DHT22;13508;50.734;4.232;2022-08-07T02:02:10;16.20;99.90
25652;DHT22;13508;50.734;4.232;2022-08-07T02:05:19;16.20;99.90
25652;DHT22;13508;50.734;4.232;2022-08-07T02:08:26;16.00;99.90
25652;DHT22;13508;50.734;4.232;2022-08-07T02:11:36;16.00;99.90
25652;DHT22;13508;50.734;4.232;2022-08-07T02:14:39;16.00;99.90
25652;DHT22;13508;50.734;4.232;2022-08-07T02:17:43;15.90;99.90
25652;DHT22;13508;50.734;4.232;2022-08-07T02:20:50;15.90;99.90
25652;DHT22;13508;50.734;4.232;2022-08-07T02:23:54;16.00;99.90
25652;DHT22;13508;50.734;4.232;2022-08-07T02:27:00;15.80;99.90
25652;DHT22;13508;50.734;4.232;2022-08-07T02:30:04;15.60;99.90
25652;DHT22;13508;50.734;4.232;2022-08-07T02:33:08;15.60;99.90
25652;DHT22;13508;50.734;4.232;2022-08-07T02:36:15;15.80;99.90
25652;DHT22;13508;50.734;4.232;2022-08-07T02:39:20;15.30;99.90
25652;DHT22;13508;50.734;4.232;2022-08-07T02:42:23;14.80;99.90
25652;DHT22;13508;50.734;4.232;2022-08-07T02:45:29;14.60;99.90
25652;DHT22;13508;50.734;4.232;2022-08-07T02:48:33;14.40;99.90
25652;DHT22;13508;50.734;4.232;2022-08-07T02:51:37;14.00;99.90
25652;DHT22;13508;50.734;4.232;2022-08-07T02:54:42;13.80;99.90
25652;DHT22;13508;50.734;4.232;2022-08-07T02:57:47;13.90;99.90
25652;DHT22;13508;50.734;4.232;2022-08-07T03:00:54;14.00;99.90
25652;DHT22;13508;50.734;4.232;2022-08-07T03:03:58;14.40;99.90
25652;DHT22;13508;50.734;4.232;2022-08-07T03:07:02;14.70;99.90
25652;DHT22;13508;50.734;4.232;2022-08-07T03:10:07;15.00;99.90
25652;DHT22;13508;50.734;4.232;2022-08-07T03:13:11;15.10;99.90
25652;DHT22;13508;50.734;4.232;2022-08-07T03:16:15;15.00;99.90
25652;DHT22;13508;50.734;4.232;2022-08-07T03:19:19;15.00;99.90
25652;DHT22;13508;50.734;4.232;2022-08-07T03:22:24;14.90;99.90
25652;DHT22;13508;50.734;4.232;2022-08-07T03:25:28;14.50;99.90
25652;DHT22;13508;50.734;4.232;2022-08-07T03:28:35;14.30;99.90
25652;DHT22;13508;50.734;4.232;2022-08-07T03:31:39;14.30;99.90
25652;DHT22;13508;50.734;4.232;2022-08-07T03:34:46;13.70;99.90
25652;DHT22;13508;50.734;4.232;2022-08-07T03:37:55;13.70;99.90
25652;DHT22;13508;50.734;4.232;2022-08-07T03:40:59;13.50;99.90
25652;DHT22;13508;50.734;4.232;2022-08-07T03:44:04;13.30;99.90
25652;DHT22;13508;50.734;4.232;2022-08-07T03:47:07;13.60;99.90
25652;DHT22;13508;50.734;4.232;2022-08-07T03:50:11;13.50;99.90
25652;DHT22;13508;50.734;4.232;2022-08-07T03:53:15;13.30;99.90
25652;DHT22;13508;50.734;4.232;2022-08-07T03:56:20;13.40;99.90
25652;DHT22;13508;50.734;4.232;2022-08-07T03:59:26;13.50;99.90
25652;DHT22;13508;50.734;4.232;2022-08-07T04:02:30;13.70;99.90
25652;DHT22;13508;50.734;4.232;2022-08-07T04:05:34;13.80;99.90
25652;DHT22;13508;50.734;4.232;2022-08-07T04:08:41;14.00;99.90
25652;DHT22;13508;50.734;4.232;2022-08-07T04:11:45;14.00;99.90
25652;DHT22;13508;50.734;4.232;2022-08-07T04:14:49;13.40;99.90
25652;DHT22;13508;50.734;4.232;2022-08-07T04:17:52;13.10;99.90
25652;DHT22;13508;50.734;4.232;2022-08-07T04:20:56;12.90;99.90
25652;DHT22;13508;50.734;4.232;2022-08-07T04:24:00;13.10;99.90
25652;DHT22;13508;50.734;4.232;2022-08-07T04:27:05;13.30;99.90
25652;DHT22;13508;50.734;4.232;2022-08-07T04:30:08;13.30;99.90
25652;DHT22;13508;50.734;4.232;2022-08-07T04:33:11;13.20;99.90
25652;DHT22;13508;50.734;4.232;2022-08-07T04:36:15;12.70;99.90
25652;DHT22;13508;50.734;4.232;2022-08-07T04:39:19;13.00;99.90
25652;DHT22;13508;50.734;4.232;2022-08-07T04:42:22;12.80;99.90
25652;DHT22;13508;50.734;4.232;2022-08-07T04:52:45;12.10;99.90
25652;DHT22;13508;50.734;4.232;2022-08-07T04:56:00;12.00;99.90
25652;DHT22;13508;50.734;4.232;2022-08-07T04:59:27;12.40;99.90
25652;DHT22;13508;50.734;4.232;2022-08-07T05:03:15;12.90;99.90
25652;DHT22;13508;50.734;4.232;2022-08-07T05:06:29;13.40;99.90
25652;DHT22;13508;50.734;4.232;2022-08-07T05:13:17;14.10;99.90
25652;DHT22;13508;50.734;4.232;2022-08-07T05:16:19;14.40;99.90
25652;DHT22;13508;50.734;4.232;2022-08-07T05:19:25;14.70;99.90
25652;DHT22;13508;50.734;4.232;2022-08-07T05:22:33;14.90;99.90
25652;DHT22;13508;50.734;4.232;2022-08-07T05:25:39;15.00;99.90
25652;DHT22;13508;50.734;4.232;2022-08-07T05:28:46;15.10;99.90
25652;DHT22;13508;50.734;4.232;2022-08-07T05:31:51;15.10;99.90
25652;DHT22;13508;50.734;4.232;2022-08-07T05:34:55;15.10;99.90
25652;DHT22;13508;50.734;4.232;2022-08-07T05:38:01;15.20;99.90
25652;DHT22;13508;50.734;4.232;2022-08-07T05:41:04;15.40;99.90
25652;DHT22;13508;50.734;4.232;2022-08-07T05:44:09;15.50;99.90
25652;DHT22;13508;50.734;4.232;2022-08-07T05:47:15;15.80;99.90
25652;DHT22;13508;50.734;4.232;2022-08-07T05:50:22;16.00;99.90
25652;DHT22;13508;50.734;4.232;2022-08-07T05:53:26;16.10;99.90
25652;DHT22;13508;50.734;4.232;2022-08-07T05:56:30;16.20;99.90
25652;DHT22;13508;50.734;4.232;2022-08-07T05:59:37;16.20;99.90
25652;DHT22;13508;50.734;4.232;2022-08-07T06:02:46;16.40;99.90
25652;DHT22;13508;50.734;4.232;2022-08-07T06:05:51;16.60;99.90
25652;DHT22;13508;50.734;4.232;2022-08-07T06:08:55;16.80;99.90
25652;DHT22;13508;50.734;4.232;2022-08-07T06:11:59;17.10;99.90
25652;DHT22;13508;50.734;4.232;2022-08-07T06:15:03;17.30;99.90
25652;DHT22;13508;50.734;4.232;2022-08-07T06:18:07;17.60;99.90
25652;DHT22;13508;50.734;4.232;2022-08-07T06:21:10;18.50;99.90
25652;DHT22;13508;50.734;4.232;2022-08-07T06:24:14;19.60;99.90
25652;DHT22;13508;50.734;4.232;2022-08-07T06:27:22;21.20;99.90
25652;DHT22;13508;50.734;4.232;2022-08-07T06:30:26;23.30;99.90
25652;DHT22;13508;50.734;4.232;2022-08-07T06:33:29;24.80;98.60
25652;DHT22;13508;50.734;4.232;2022-08-07T06:36:32;26.10;95.00
25652;DHT22;13508;50.734;4.232;2022-08-07T06:39:35;27.40;91.70
25652;DHT22;13508;50.734;4.232;2022-08-07T06:42:41;27.70;88.90
25652;DHT22;13508;50.734;4.232;2022-08-07T06:45:44;27.40;87.20
25652;DHT22;13508;50.734;4.232;2022-08-07T06:48:48;28.30;86.00
25652;DHT22;13508;50.734;4.232;2022-08-07T06:51:52;29.10;79.40
25652;DHT22;13508;50.734;4.232;2022-08-07T06:54:56;30.20;75.90
25652;DHT22;13508;50.734;4.232;2022-08-07T06:58:07;30.90;71.10
25652;DHT22;13508;50.734;4.232;2022-08-07T07:01:13;30.40;69.80
25652;DHT22;13508;50.734;4.232;2022-08-07T07:04:16;31.20;68.10
25652;DHT22;13508;50.734;4.232;2022-08-07T07:07:20;32.90;64.10
25652;DHT22;13508;50.734;4.232;2022-08-07T07:10:32;31.80;62.20
25652;DHT22;13508;50.734;4.232;2022-08-07T07:13:42;30.70;64.20
25652;DHT22;13508;50.734;4.232;2022-08-07T07:16:47;31.50;63.60
25652;DHT22;13508;50.734;4.232;2022-08-07T07:19:56;31.90;61.70
25652;DHT22;13508;50.734;4.232;2022-08-07T07:23:14;33.20;59.50
25652;DHT22;13508;50.734;4.232;2022-08-07T07:26:20;34.10;56.70
25652;DHT22;13508;50.734;4.232;2022-08-07T07:29:26;34.60;55.20
25652;DHT22;13508;50.734;4.232;2022-08-07T07:32:34;34.70;54.30
25652;DHT22;13508;50.734;4.232;2022-08-07T07:35:42;34.20;53.70
25652;DHT22;13508;50.734;4.232;2022-08-07T07:38:46;35.10;52.20
25652;DHT22;13508;50.734;4.232;2022-08-07T07:41:50;34.20;52.10
25652;DHT22;13508;50.734;4.232;2022-08-07T07:44:57;31.70;55.70
25652;DHT22;13508;50.734;4.232;2022-08-07T07:48:02;28.80;61.30
25652;DHT22;13508;50.734;4.232;2022-08-07T07:51:06;26.60;67.70
25652;DHT22;13508;50.734;4.232;2022-08-07T07:54:12;25.20;73.40
25652;DHT22;13508;50.734;4.232;2022-08-07T07:57:21;24.40;77.90
25652;DHT22;13508;50.734;4.232;2022-08-07T08:00:26;23.50;81.00
25652;DHT22;13508;50.734;4.232;2022-08-07T08:03:30;23.10;85.30
25652;DHT22;13508;50.734;4.232;2022-08-07T08:06:34;26.10;75.50
25652;DHT22;13508;50.734;4.232;2022-08-07T08:09:39;28.90;66.80
25652;DHT22;13508;50.734;4.232;2022-08-07T08:12:43;31.50;60.10
25652;DHT22;13508;50.734;4.232;2022-08-07T08:15:47;32.80;56.90
25652;DHT22;13508;50.734;4.232;2022-08-07T08:18:53;33.80;53.50
25652;DHT22;13508;50.734;4.232;2022-08-07T08:21:59;34.10;52.80
25652;DHT22;13508;50.734;4.232;2022-08-07T08:25:25;34.40;52.20
25652;DHT22;13508;50.734;4.232;2022-08-07T08:28:50;35.00;50.30
25652;DHT22;13508;50.734;4.232;2022-08-07T08:31:54;34.10;50.40
25652;DHT22;13508;50.734;4.232;2022-08-07T08:34:59;33.40;51.80
25652;DHT22;13508;50.734;4.232;2022-08-07T08:38:04;33.60;52.00
25652;DHT22;13508;50.734;4.232;2022-08-07T08:44:40;35.30;49.40
25652;DHT22;13508;50.734;4.232;2022-08-07T08:51:30;35.10;48.60
25652;DHT22;13508;50.734;4.232;2022-08-07T08:54:42;35.20;48.30
25652;DHT22;13508;50.734;4.232;2022-08-07T08:58:07;33.10;50.30
25652;DHT22;13508;50.734;4.232;2022-08-07T09:01:25;32.70;52.20
25652;DHT22;13508;50.734;4.232;2022-08-07T09:04:50;33.50;50.80
25652;DHT22;13508;50.734;4.232;2022-08-07T09:08:03;34.20;49.50
25652;DHT22;13508;50.734;4.232;2022-08-07T09:11:14;35.80;47.20
25652;DHT22;13508;50.734;4.232;2022-08-07T09:14:38;34.40;48.40
25652;DHT22;13508;50.734;4.232;2022-08-07T09:27:54;36.00;45.90
25652;DHT22;13508;50.734;4.232;2022-08-07T09:31:32;36.30;46.10
25652;DHT22;13508;50.734;4.232;2022-08-07T09:48:18;37.20;44.10
25652;DHT22;13508;50.734;4.232;2022-08-07T09:58:47;37.00;43.40
25652;DHT22;13508;50.734;4.232;2022-08-07T10:09:12;36.80;42.60
25652;DHT22;13508;50.734;4.232;2022-08-07T10:15:58;35.30;44.00
25652;DHT22;13508;50.734;4.232;2022-08-07T10:19:16;35.60;44.70
25652;DHT22;13508;50.734;4.232;2022-08-07T10:23:07;33.40;46.80
25652;DHT22;13508;50.734;4.232;2022-08-07T10:34:04;32.60;48.20
25652;DHT22;13508;50.734;4.232;2022-08-07T10:40:27;35.40;43.20
25652;DHT22;13508;50.734;4.232;2022-08-07T10:43:43;35.20;43.30
25652;DHT22;13508;50.734;4.232;2022-08-07T10:46:54;35.40;42.80
25652;DHT22;13508;50.734;4.232;2022-08-07T10:50:08;36.30;41.60
25652;DHT22;13508;50.734;4.232;2022-08-07T11:00:18;36.00;40.90
25652;DHT22;13508;50.734;4.232;2022-08-07T11:03:33;36.40;40.70
25652;DHT22;13508;50.734;4.232;2022-08-07T11:10:38;35.70;41.10
25652;DHT22;13508;50.734;4.232;2022-08-07T11:13:53;34.10;42.70
25652;DHT22;13508;50.734;4.232;2022-08-07T11:17:09;33.50;44.70
25652;DHT22;13508;50.734;4.232;2022-08-07T11:20:21;32.90;45.20
25652;DHT22;13508;50.734;4.232;2022-08-07T11:23:43;32.40;46.00
25652;DHT22;13508;50.734;4.232;2022-08-07T11:27:06;32.80;45.00
25652;DHT22;13508;50.734;4.232;2022-08-07T11:30:14;32.30;45.70
25652;DHT22;13508;50.734;4.232;2022-08-07T11:33:50;30.20;48.60
25652;DHT22;13508;50.734;4.232;2022-08-07T11:37:04;30.30;49.40
25652;DHT22;13508;50.734;4.232;2022-08-07T20:44:40;20.70;93.50
25652;DHT22;13508;50.734;4.232;2022-08-07T20:47:44;20.60;93.70
25652;DHT22;13508;50.734;4.232;2022-08-07T20:50:53;20.70;93.60
25652;DHT22;13508;50.734;4.232;2022-08-07T20:54:01;20.70;94.00
25652;DHT22;13508;50.734;4.232;2022-08-07T20:57:08;20.70;93.80
25652;DHT22;13508;50.734;4.232;2022-08-07T21:00:13;20.60;94.10
25652;DHT22;13508;50.734;4.232;2022-08-07T21:03:20;20.40;94.60
25652;DHT22;13508;50.734;4.232;2022-08-07T21:06:25;20.30;95.10
25652;DHT22;13508;50.734;4.232;2022-08-07T21:09:34;20.20;95.60
25652;DHT22;13508;50.734;4.232;2022-08-07T21:12:39;20.20;96.00
25652;DHT22;13508;50.734;4.232;2022-08-07T21:15:47;20.20;96.20
25652;DHT22;13508;50.734;4.232;2022-08-07T21:18:54;20.10;96.70
25652;DHT22;13508;50.734;4.232;2022-08-07T21:22:04;20.00;97.20
25652;DHT22;13508;50.734;4.232;2022-08-07T21:28:23;20.00;97.90
25652;DHT22;13508;50.734;4.232;2022-08-07T21:32:30;19.90;98.20
25652;DHT22;13508;50.734;4.232;2022-08-07T21:35:36;19.90;98.70
25652;DHT22;13508;50.734;4.232;2022-08-07T21:38:48;19.70;99.60
25652;DHT22;13508;50.734;4.232;2022-08-07T21:42:17;19.50;99.90
25652;DHT22;13508;50.734;4.232;2022-08-07T21:45:54;19.30;99.90
25652;DHT22;13508;50.734;4.232;2022-08-07T21:52:14;19.20;99.90
25652;DHT22;13508;50.734;4.232;2022-08-07T21:55:22;19.10;99.90
25652;DHT22;13508;50.734;4.232;2022-08-07T21:58:32;19.10;99.90
25652;DHT22;13508;50.734;4.232;2022-08-07T22:01:46;19.00;99.90
25652;DHT22;13508;50.734;4.232;2022-08-07T22:04:54;19.10;99.90
25652;DHT22;13508;50.734;4.232;2022-08-07T22:08:00;19.10;99.90
25652;DHT22;13508;50.734;4.232;2022-08-07T22:11:04;19.10;99.90
25652;DHT22;13508;50.734;4.232;2022-08-07T22:14:08;19.10;99.90
25652;DHT22;13508;50.734;4.232;2022-08-07T22:17:16;19.00;99.90
25652;DHT22;13508;50.734;4.232;2022-08-07T22:20:41;18.90;99.90
25652;DHT22;13508;50.734;4.232;2022-08-07T22:23:56;18.90;99.90
25652;DHT22;13508;50.734;4.232;2022-08-07T22:31:24;18.80;99.90
25652;DHT22;13508;50.734;4.232;2022-08-07T22:34:08;18.60;99.90
25652;DHT22;13508;50.734;4.232;2022-08-07T22:44:13;18.60;99.90
25652;DHT22;13508;50.734;4.232;2022-08-07T22:47:27;18.60;99.90
25652;DHT22;13508;50.734;4.232;2022-08-07T23:00:52;18.40;99.90
25652;DHT22;13508;50.734;4.232;2022-08-07T23:10:56;18.10;99.90
25652;DHT22;13508;50.734;4.232;2022-08-07T23:14:37;18.00;99.90
25652;DHT22;13508;50.734;4.232;2022-08-07T23:21:26;17.60;99.90
25652;DHT22;13508;50.734;4.232;2022-08-07T23:24:49;17.70;99.90
25652;DHT22;13508;50.734;4.232;2022-08-07T23:31:40;17.50;99.90
25652;DHT22;13508;50.734;4.232;2022-08-07T23:35:17;17.60;99.90
25652;DHT22;13508;50.734;4.232;2022-08-07T23:52:31;16.60;99.90
25652;DHT22;13508;50.734;4.232;2022-08-07T23:59:22;16.70;99.90
